createdAt,value
2023-04-18T10:51:46.655Z,54.2800
2023-04-18T10:52:48.288Z,55.6046
2023-04-18T10:53:50.727Z,54.6800
2023-04-18T10:54:51.564Z,53.7185
2023-04-18T10:55:54.217Z,52.8485
2023-04-18T10:56:54.841Z,52.6108
2023-04-18T10:57:57.577Z,52.4985
2023-04-18T10:58:58.199Z,52.5177
2023-04-18T10:59:59.769Z,52.4008
2023-04-18T11:01:01.646Z,52.0723
2023-04-18T11:02:03.162Z,52.1377
2023-04-18T11:03:05.613Z,52.4400
2023-04-18T11:04:06.405Z,52.4077
2023-04-18T11:05:08.049Z,55.2477
2023-04-18T11:06:09.664Z,54.0831
2023-04-18T11:07:11.407Z,54.6331
2023-04-18T11:08:13.050Z,54.2269
2023-04-18T11:09:14.642Z,54.2454
2023-04-18T11:10:16.202Z,53.5515
2023-04-18T11:11:17.920Z,53.2031
2023-04-18T11:12:19.858Z,51.4069
2023-04-18T11:13:21.857Z,49.4900
2023-04-18T11:14:22.912Z,48.3838
2023-04-18T11:15:24.583Z,45.9200
2023-04-18T11:16:26.300Z,43.7038
2023-04-18T11:17:27.927Z,44.0300
2023-04-18T11:18:29.581Z,44.3400
2023-04-18T11:19:31.206Z,45.1692
2023-04-18T11:20:32.838Z,44.5062
2023-04-18T11:21:34.454Z,45.8323
2023-04-18T11:22:36.831Z,46.2215
2023-04-18T11:23:37.742Z,47.2846
2023-04-18T11:24:39.456Z,48.1854
2023-04-18T11:25:41.003Z,47.6300
2023-04-18T11:26:42.792Z,45.9892
2023-04-18T11:27:44.408Z,44.3208
2023-04-18T11:28:46.035Z,43.4631
2023-04-18T11:29:47.698Z,41.9838
2023-04-18T11:30:49.374Z,40.2200
2023-04-18T11:31:51.038Z,41.3208
2023-04-18T11:32:52.708Z,42.7477
2023-04-18T11:33:54.192Z,42.6162
2023-04-18T11:34:56.775Z,43.8623
2023-04-18T11:35:57.539Z,44.1685
2023-04-18T11:36:59.189Z,43.6646
2023-04-18T11:38:00.871Z,44.8131
2023-04-18T11:39:02.582Z,44.8131
2023-04-18T11:40:04.206Z,45.0692
2023-04-18T11:41:05.785Z,45.2915
2023-04-18T11:42:07.499Z,45.2277
2023-04-18T11:43:09.166Z,44.4185
2023-04-18T11:44:10.776Z,42.8677
2023-04-18T11:45:12.374Z,42.0362
2023-04-18T11:46:14.098Z,42.0923
2023-04-18T11:47:15.665Z,41.2600
2023-04-18T11:48:17.448Z,40.2438
2023-04-18T11:49:19.012Z,40.8162
2023-04-18T11:50:20.634Z,41.9092
2023-04-18T11:51:22.367Z,41.3462
2023-04-18T11:52:23.909Z,42.2085
2023-04-18T11:53:25.620Z,42.9446
2023-04-18T11:54:27.241Z,43.6815
2023-04-18T11:55:28.876Z,44.1846
2023-04-18T11:56:30.499Z,45.0192
2023-04-18T11:57:32.131Z,45.9423
2023-04-18T11:58:33.773Z,45.7385
2023-04-18T11:59:35.494Z,45.2800
2023-04-18T12:00:37.054Z,44.1546
2023-04-18T12:01:38.724Z,44.2038
2023-04-18T12:02:40.494Z,41.3246
2023-04-18T12:03:42.260Z,39.6046
2023-04-18T12:04:44.165Z,38.8431
2023-04-18T12:05:45.594Z,39.9138
2023-04-18T12:06:47.018Z,40.6477
2023-04-18T12:07:48.603Z,41.1492
2023-04-18T12:08:51.207Z,41.2362
2023-04-18T12:09:51.936Z,41.9169
2023-04-18T12:10:54.259Z,42.0008
2023-04-18T12:11:55.204Z,42.5992
2023-04-18T12:12:56.818Z,42.7862
2023-04-18T12:13:58.444Z,43.2431
2023-04-18T12:15:00.292Z,44.0254
2023-04-18T12:16:01.805Z,42.9369
2023-04-18T12:17:03.310Z,40.7646
2023-04-18T12:18:05.810Z,39.8823
2023-04-18T12:19:06.627Z,40.8546
2023-04-18T12:20:08.322Z,41.6477
2023-04-18T12:21:09.933Z,41.9346
2023-04-18T12:22:12.221Z,42.0008
2023-04-18T12:23:13.450Z,42.4315
2023-04-18T12:24:16.626Z,43.0277
2023-04-18T12:25:16.605Z,43.9308
2023-04-18T12:26:18.191Z,44.6546
2023-04-18T12:27:19.858Z,44.3708
2023-04-18T12:28:21.487Z,43.3538
2023-04-18T12:29:23.153Z,41.6762
2023-04-18T12:30:24.846Z,40.0108
2023-04-18T12:31:26.457Z,39.6500
2023-04-18T12:32:28.068Z,38.5538
2023-04-18T12:33:29.729Z,40.5008
2023-04-18T12:34:31.310Z,39.7377
2023-04-18T12:35:33.394Z,38.7554
2023-04-18T12:36:34.636Z,39.4685
2023-04-18T12:37:36.270Z,39.1215
2023-04-18T12:38:37.914Z,39.0808
2023-04-18T12:39:39.590Z,39.9069
2023-04-18T12:40:41.252Z,40.5438
2023-04-18T12:41:42.871Z,37.3892
2023-04-18T12:42:44.494Z,36.8431
2023-04-18T12:43:46.158Z,36.7446
2023-04-18T12:44:48.044Z,38.5985
2023-04-18T12:45:49.460Z,38.5538
2023-04-18T12:46:51.210Z,37.6831
2023-04-18T12:47:52.818Z,38.1331
2023-04-18T12:48:54.363Z,38.4369
2023-04-18T12:49:55.974Z,38.7715
2023-04-18T12:50:57.731Z,39.0208
2023-04-18T12:51:59.274Z,39.3369
2023-04-18T12:53:00.882Z,39.1692
2023-04-18T12:54:02.606Z,42.8931
2023-04-18T12:55:04.204Z,44.2454
2023-04-18T12:56:05.944Z,38.8354
2023-04-18T12:57:07.482Z,39.8277
2023-04-18T12:58:09.197Z,38.0315
2023-04-18T12:59:10.780Z,38.1069
2023-04-18T13:00:12.456Z,38.6454
2023-04-18T13:01:14.247Z,39.4231
2023-04-18T13:02:15.850Z,40.1615
2023-04-18T13:03:17.400Z,40.0800
2023-04-18T13:04:19.236Z,39.8215
2023-04-18T13:05:21.388Z,39.8454
2023-04-18T13:06:22.410Z,39.5846
2023-04-18T13:07:23.927Z,39.3015
2023-04-18T13:08:25.605Z,37.6892
2023-04-18T13:09:27.213Z,36.7146
2023-04-18T13:10:28.891Z,35.5385
2023-04-18T13:11:30.870Z,34.5662
2023-04-18T13:12:32.178Z,34.6285
2023-04-18T13:13:35.604Z,35.9392
2023-04-18T13:14:35.488Z,36.2877
2023-04-18T13:15:37.097Z,35.6377
2023-04-18T13:16:39.762Z,36.2662
2023-04-18T13:17:40.485Z,36.8946
2023-04-18T13:18:42.066Z,38.0108
2023-04-18T13:19:43.716Z,36.9246
2023-04-18T13:20:45.410Z,36.8223
2023-04-18T13:21:49.126Z,39.0069
2023-04-18T13:22:48.775Z,33.9715
2023-04-18T13:23:50.328Z,35.4992
2023-04-18T13:24:51.924Z,36.9854
2023-04-18T13:25:53.597Z,35.3900
2023-04-18T13:26:55.241Z,35.2046
2023-04-18T13:27:57.465Z,35.9331
2023-04-18T13:28:58.524Z,36.3615
2023-04-18T13:30:00.205Z,37.8723
2023-04-18T13:31:01.801Z,38.8554
2023-04-18T13:32:03.593Z,40.5177
2023-04-18T13:33:05.224Z,35.4508
2023-04-18T13:34:06.830Z,33.4038
2023-04-18T13:35:08.424Z,33.9785
2023-04-18T13:36:10.124Z,37.1738
2023-04-18T13:37:11.773Z,40.6692
2023-04-18T13:38:13.415Z,40.4285
2023-04-18T13:39:15.126Z,36.4023
2023-04-18T13:40:16.687Z,37.1377
2023-04-18T13:41:18.291Z,38.4162
2023-04-18T13:42:20.005Z,37.1677
2023-04-18T13:43:21.652Z,35.3992
2023-04-18T13:44:23.271Z,35.7431
2023-04-18T13:45:24.842Z,35.1415
2023-04-18T13:46:26.631Z,34.4754
2023-04-18T13:47:28.395Z,34.2377
2023-04-18T13:48:29.892Z,35.8954
2023-04-18T13:49:31.492Z,38.2446
2023-04-18T13:50:33.166Z,32.1631
2023-04-18T13:51:34.818Z,33.8785
2023-04-18T13:52:36.503Z,35.5685
2023-04-18T13:53:38.108Z,36.3238
2023-04-18T13:54:39.722Z,35.5669
2023-04-18T13:55:41.372Z,34.6762
2023-04-18T13:56:43.044Z,34.4669
2023-04-18T13:57:44.709Z,33.8038
2023-04-18T13:58:46.455Z,33.8015
2023-04-18T13:59:47.961Z,34.8762
2023-04-18T14:00:49.578Z,33.8223
2023-04-18T14:01:51.260Z,33.1108
2023-04-18T14:02:53.576Z,33.9154
2023-04-18T14:03:54.761Z,33.1731
2023-04-18T14:04:56.282Z,35.3023
2023-04-18T14:05:57.856Z,35.8185
2023-04-18T14:06:59.473Z,37.3492
2023-04-18T14:08:01.160Z,36.1531
2023-04-18T14:09:03.758Z,32.7123
2023-04-18T14:10:05.377Z,32.4062
2023-04-18T14:11:06.103Z,32.3100
2023-04-18T14:12:07.889Z,31.2085
2023-04-18T14:13:09.380Z,33.5615
2023-04-18T14:14:11.100Z,34.8215
2023-04-18T14:15:12.740Z,33.2823
2023-04-18T14:16:14.351Z,32.5254
2023-04-18T14:17:15.950Z,33.6500
2023-04-18T14:18:17.640Z,36.3769
2023-04-18T14:19:19.319Z,33.4731
2023-04-18T14:20:21.437Z,33.4985
2023-04-18T14:21:22.494Z,33.3146
2023-04-18T14:22:24.213Z,31.9431
2023-04-18T14:23:25.910Z,31.3808
2023-04-18T14:24:27.521Z,30.7662
2023-04-18T14:25:29.171Z,34.1523
2023-04-18T14:26:30.843Z,34.8338
2023-04-18T14:27:32.421Z,35.4408
2023-04-18T14:28:34.134Z,34.8338
2023-04-18T14:29:36.364Z,33.5369
2023-04-18T14:30:37.456Z,35.4146
2023-04-18T14:31:39.104Z,40.3508
2023-04-18T14:32:40.806Z,40.0192
2023-04-18T14:33:42.317Z,40.9985
2023-04-18T14:34:44.087Z,38.2531
2023-04-18T14:35:45.707Z,36.9938
2023-04-18T14:36:47.278Z,35.6031
2023-04-18T14:37:48.924Z,37.1431
2023-04-18T14:38:50.646Z,35.6231
2023-04-18T14:39:52.300Z,36.8223
2023-04-18T14:40:54.010Z,36.9885
2023-04-18T14:41:55.504Z,36.5892
2023-04-18T14:42:57.204Z,35.9862
2023-04-18T14:43:58.801Z,35.1315
2023-04-18T14:45:00.552Z,35.3808
2023-04-18T14:46:02.174Z,34.0477
2023-04-18T14:47:03.873Z,34.0608
2023-04-18T14:48:06.333Z,33.4500
2023-04-18T14:49:07.061Z,32.6038
2023-04-18T14:50:08.812Z,32.6092
2023-04-18T14:51:10.416Z,33.0592
2023-04-18T14:52:12.068Z,32.2092
2023-04-18T14:53:13.656Z,32.2400
2023-04-18T14:54:15.356Z,33.1262
2023-04-18T14:55:16.991Z,32.6062
2023-04-18T14:56:18.739Z,33.9454
2023-04-18T14:57:20.240Z,33.6431
2023-04-18T14:58:21.920Z,33.4415
2023-04-18T14:59:23.535Z,32.3085
2023-04-18T15:00:25.205Z,33.6300
2023-04-18T15:01:26.921Z,32.1108
2023-04-18T15:02:28.578Z,32.9900
2023-04-18T15:03:31.043Z,33.6254
2023-04-18T15:04:31.906Z,33.3500
2023-04-18T15:05:33.501Z,35.4100
2023-04-18T15:06:35.527Z,35.2577
2023-04-18T15:07:36.737Z,34.7108
2023-04-18T15:08:38.388Z,34.6777
2023-04-18T15:09:40.109Z,37.1208
2023-04-18T15:10:41.720Z,37.9562
2023-04-18T15:11:43.610Z,37.0823
2023-04-18T15:12:44.963Z,35.1369
2023-04-18T15:13:46.681Z,34.9100
2023-04-18T15:14:48.248Z,35.6708
2023-04-18T15:15:50.482Z,35.9762
2023-04-18T15:16:51.687Z,37.1123
2023-04-18T15:17:53.314Z,36.2615
2023-04-18T15:18:54.898Z,35.0215
2023-04-18T15:19:56.495Z,34.0477
2023-04-18T15:20:58.214Z,35.0900
2023-04-18T15:22:00.556Z,33.7731
2023-04-18T15:23:01.493Z,33.8938
2023-04-18T15:24:03.099Z,34.2777
2023-04-18T15:25:04.821Z,34.7569
2023-04-18T15:26:06.485Z,34.9654
2023-04-18T15:27:08.116Z,35.5769
2023-04-18T15:28:09.713Z,37.9115
2023-04-18T15:29:11.385Z,38.1646
2023-04-18T15:30:13.061Z,37.2369
2023-04-18T15:31:14.774Z,37.7538
2023-04-18T15:32:16.446Z,37.9485
2023-04-18T15:33:17.998Z,36.8854
2023-04-18T15:34:19.675Z,35.3346
2023-04-18T15:35:21.900Z,37.8762
2023-04-18T15:36:23.037Z,40.8385
2023-04-18T15:37:24.659Z,36.8008
2023-04-18T15:38:26.228Z,36.7238
2023-04-18T15:39:27.831Z,36.5531
2023-04-18T15:40:29.578Z,37.0977
2023-04-18T15:41:31.220Z,38.2769
2023-04-18T15:42:32.966Z,37.8862
2023-04-18T15:43:34.528Z,38.6446
2023-04-18T15:44:36.176Z,38.4831
2023-04-18T15:45:37.858Z,38.8354
2023-04-18T15:46:41.410Z,39.4815
2023-04-18T15:47:42.101Z,39.3708
2023-04-18T15:48:42.776Z,39.8623
2023-04-18T15:49:44.473Z,41.0085
2023-04-18T15:50:46.041Z,40.7285
2023-04-18T15:51:47.798Z,41.2131
2023-04-18T15:52:49.411Z,41.4569
2023-04-18T15:53:51.008Z,42.1246
2023-04-18T15:54:52.604Z,42.3177
2023-04-18T15:55:54.363Z,42.6823
2023-04-18T15:56:55.925Z,42.7731
2023-04-18T15:57:57.583Z,43.3431
2023-04-18T15:58:59.266Z,42.3154
2023-04-18T16:00:00.941Z,41.4515
2023-04-18T16:01:02.562Z,39.0654
2023-04-18T16:02:05.081Z,37.7777
2023-04-18T16:03:05.957Z,38.6315
2023-04-18T16:04:07.619Z,39.7631
2023-04-18T16:05:09.908Z,39.8108
2023-04-18T16:06:10.778Z,39.3162
2023-04-18T16:07:12.444Z,40.1562
2023-04-18T16:08:14.066Z,40.4823
2023-04-18T16:09:15.709Z,40.8954
2023-04-18T16:10:17.347Z,41.1738
2023-04-18T16:11:18.970Z,41.3892
2023-04-18T16:12:20.748Z,41.2654
2023-04-18T16:13:22.284Z,41.6354
2023-04-18T16:14:23.947Z,41.9385
2023-04-18T16:15:25.528Z,42.2631
2023-04-18T16:16:27.211Z,42.6808
2023-04-18T16:17:28.997Z,42.9977
2023-04-18T16:18:30.534Z,43.0608
2023-04-18T16:19:32.943Z,43.8862
2023-04-18T16:20:33.833Z,43.7600
2023-04-18T16:21:35.416Z,44.1115
2023-04-18T16:22:37.104Z,44.4223
2023-04-18T16:23:38.712Z,44.4754
2023-04-18T16:24:42.011Z,44.7754
2023-04-18T16:25:41.998Z,44.8262
2023-04-18T16:26:43.596Z,43.3662
2023-04-18T16:27:45.298Z,42.7600
2023-04-18T16:28:46.874Z,42.3654
2023-04-18T16:29:48.502Z,41.2908
2023-04-18T16:30:50.181Z,41.5015
2023-04-18T16:31:52.067Z,41.0323
2023-04-18T16:32:54.159Z,41.7385
2023-04-18T16:33:55.345Z,42.6008
2023-04-18T16:34:57.885Z,43.8777
2023-04-18T16:35:58.509Z,43.1115
2023-04-18T16:37:01.177Z,43.0854
2023-04-18T16:38:03.664Z,43.6385
2023-04-18T16:39:08.189Z,43.3021
2023-04-18T16:40:09.878Z,43.3031
2023-04-18T16:41:11.561Z,43.6200
2023-04-18T16:42:15.653Z,43.9015
2023-04-18T16:43:14.776Z,43.9962
2023-04-18T16:44:16.452Z,44.1577
2023-04-18T16:45:17.962Z,44.3815
2023-04-18T16:46:19.723Z,44.3531
2023-04-18T16:47:21.277Z,44.6931
2023-04-18T16:48:22.983Z,44.6362
2023-04-18T16:49:24.590Z,44.7846
2023-04-18T16:50:26.273Z,44.9546
2023-04-18T16:51:27.885Z,44.9315
2023-04-18T16:52:29.543Z,47.5423
2023-04-18T16:53:31.518Z,48.6562
2023-04-18T16:54:32.836Z,45.7746
2023-04-18T16:55:34.470Z,44.9323
2023-04-18T16:56:36.160Z,43.2954
2023-04-18T16:57:37.834Z,41.6646
2023-04-18T16:58:39.380Z,41.7492
2023-04-18T16:59:40.997Z,38.7354
2023-04-18T17:00:42.653Z,38.9385
2023-04-18T17:01:44.329Z,38.4469
2023-04-18T17:02:46.007Z,38.3177
2023-04-18T17:03:47.704Z,38.5300
2023-04-18T17:04:49.307Z,38.8077
2023-04-18T17:05:50.817Z,39.2677
2023-04-18T17:06:52.552Z,39.2269
2023-04-18T17:07:54.107Z,39.7808
2023-04-18T17:08:55.960Z,39.8077
2023-04-18T17:09:57.484Z,40.1638
2023-04-18T17:10:59.191Z,41.1600
2023-04-18T17:12:00.785Z,40.9092
2023-04-18T17:13:02.694Z,42.0962
2023-04-18T17:14:04.145Z,41.7808
2023-04-18T17:15:06.026Z,42.0177
2023-04-18T17:16:07.429Z,42.3508
2023-04-18T17:17:09.051Z,45.2715
2023-04-18T17:18:10.796Z,42.9638
2023-04-18T17:19:12.526Z,42.6715
2023-04-18T17:20:14.983Z,43.1892
2023-04-18T17:21:15.663Z,47.0915
2023-04-18T17:22:17.277Z,44.2554
2023-04-18T17:23:18.977Z,47.5185
2023-04-18T17:24:20.648Z,46.4369
2023-04-18T17:25:22.481Z,44.9338
2023-04-18T17:26:23.917Z,47.5862
2023-04-18T17:27:25.571Z,44.9023
2023-04-18T17:28:27.217Z,44.3792
2023-04-18T17:29:28.879Z,45.3746
2023-04-18T17:30:30.970Z,45.8931
2023-04-18T17:31:32.262Z,44.4438
2023-04-18T17:32:33.908Z,45.2192
2023-04-18T17:33:36.406Z,45.1246
2023-04-18T17:34:37.165Z,46.9669
2023-04-18T17:35:38.797Z,45.8092
2023-04-18T17:36:40.416Z,46.0477
2023-04-18T17:37:42.106Z,45.7931
2023-04-18T17:38:43.764Z,45.6623
2023-04-18T17:39:45.341Z,45.9554
2023-04-18T17:40:47.486Z,45.9231
2023-04-18T17:41:48.573Z,46.6677
2023-04-18T17:42:50.327Z,46.4715
2023-04-18T17:43:51.946Z,46.9954
2023-04-18T17:44:53.651Z,47.0669
2023-04-18T17:45:55.318Z,47.0446
2023-04-18T17:46:56.978Z,47.7546
2023-04-18T17:47:58.793Z,47.8877
2023-04-18T17:49:00.553Z,47.8885
2023-04-18T17:50:02.024Z,47.1577
2023-04-18T17:51:03.685Z,47.5531
2023-04-18T17:52:05.645Z,48.0200
2023-04-18T17:53:06.936Z,48.3677
2023-04-18T17:54:08.686Z,48.4823
2023-04-18T17:55:10.358Z,48.4877
2023-04-18T17:56:12.102Z,48.6869
2023-04-18T17:57:13.513Z,49.2385
2023-04-18T17:58:15.291Z,48.8808
2023-04-18T17:59:16.970Z,49.2492
2023-04-18T18:00:18.534Z,49.3446
2023-04-18T18:01:20.182Z,49.2885
2023-04-18T18:02:23.243Z,49.2938
2023-04-18T18:03:23.417Z,49.2131
2023-04-18T18:04:28.180Z,49.7846
2023-04-18T18:05:26.684Z,49.7485
2023-04-18T18:06:28.367Z,49.7631
2023-04-18T18:07:29.977Z,50.0046
2023-04-18T18:08:31.618Z,49.9069
2023-04-18T18:09:33.198Z,50.0823
2023-04-18T18:10:34.954Z,50.4285
2023-04-18T18:11:36.658Z,50.5246
2023-04-18T18:12:38.204Z,50.5108
2023-04-18T18:13:39.782Z,50.5946
2023-04-18T18:14:41.505Z,50.9438
2023-04-18T18:15:43.216Z,50.7669
2023-04-18T18:16:44.866Z,51.0554
2023-04-18T18:17:46.494Z,50.9131
2023-04-18T18:18:48.074Z,51.0092
2023-04-18T18:19:49.734Z,51.0185
2023-04-18T18:20:51.370Z,51.3392
2023-04-18T18:21:53.089Z,51.7369
2023-04-18T18:22:54.662Z,51.7523
2023-04-18T18:23:56.324Z,51.3538
2023-04-18T18:24:57.969Z,51.8208
2023-04-18T18:25:59.660Z,51.9308
2023-04-18T18:27:01.279Z,52.0631
2023-04-18T18:28:02.903Z,52.3931
2023-04-18T18:29:04.511Z,52.1369
2023-04-18T18:30:06.211Z,52.2400
2023-04-18T18:31:07.908Z,52.2431
2023-04-18T18:32:09.523Z,52.4785
2023-04-18T18:33:11.983Z,52.7315
2023-04-18T18:34:12.771Z,52.2000
2023-04-18T18:35:14.462Z,52.3885
2023-04-18T18:36:16.142Z,52.4677
2023-04-18T18:37:17.704Z,52.4223
2023-04-18T18:38:19.359Z,52.4000
2023-04-18T18:39:21.094Z,52.6231
2023-04-18T18:40:22.682Z,52.5938
2023-04-18T18:41:24.646Z,52.5462
2023-04-18T18:42:25.968Z,52.5208
2023-04-18T18:43:27.593Z,52.6415
2023-04-18T18:44:29.204Z,52.8662
2023-04-18T18:45:30.887Z,52.7992
2023-04-18T18:46:32.685Z,52.8546
2023-04-18T18:47:34.922Z,53.2100
2023-04-18T18:48:35.816Z,52.9692
2023-04-18T18:49:37.483Z,52.8000
2023-04-18T18:50:39.133Z,53.3354
2023-04-18T18:51:40.853Z,53.1885
2023-04-18T18:52:42.435Z,52.9100
2023-04-18T18:53:45.160Z,53.1069
2023-04-18T18:54:45.716Z,53.5462
2023-04-18T18:55:47.290Z,53.2100
2023-04-18T18:56:49.024Z,53.3192
2023-04-18T18:57:50.694Z,53.1585
2023-04-18T18:58:52.439Z,53.2846
2023-04-18T18:59:55.721Z,53.4631
2023-04-18T19:00:55.575Z,53.2354
2023-04-18T19:01:57.292Z,53.6715
2023-04-18T19:02:59.713Z,53.4615
2023-04-18T19:04:00.710Z,53.5446
2023-04-18T19:05:02.317Z,53.6715
2023-04-18T19:06:03.728Z,53.5092
2023-04-18T19:07:05.449Z,53.4877
2023-04-18T19:08:07.197Z,53.7923
2023-04-18T19:09:08.757Z,53.4862
2023-04-18T19:10:10.370Z,53.3977
2023-04-18T19:11:12.016Z,53.6231
2023-04-18T19:12:13.738Z,53.6946
2023-04-18T19:13:15.397Z,53.5662
2023-04-18T19:14:17.019Z,53.3477
2023-04-18T19:15:18.567Z,53.8862
2023-04-18T19:16:20.347Z,53.9215
2023-04-18T19:17:22.037Z,53.5138
2023-04-18T19:18:23.631Z,53.7277
2023-04-18T19:19:25.136Z,53.7454
2023-04-18T19:20:28.721Z,53.6392
2023-04-18T19:21:28.513Z,54.0185
2023-04-18T19:22:30.230Z,53.8092
2023-04-18T19:23:32.096Z,53.5546
2023-04-18T19:24:33.448Z,53.6969
2023-04-18T19:25:35.048Z,53.7023
2023-04-18T19:26:36.727Z,53.7908
2023-04-18T19:27:38.414Z,54.0969
2023-04-18T19:28:40.156Z,53.8662
2023-04-18T19:29:41.679Z,54.3046
2023-04-18T19:30:43.314Z,53.7508
2023-04-18T19:31:44.942Z,53.7177
2023-04-18T19:32:46.695Z,54.0346
2023-04-18T19:33:48.327Z,53.9923
2023-04-18T19:34:49.905Z,54.5392
2023-04-18T19:35:51.610Z,54.7669
2023-04-18T19:36:53.237Z,53.6162
2023-04-18T19:37:54.911Z,53.7385
2023-04-18T19:38:56.611Z,53.7800
2023-04-18T19:39:58.216Z,53.7185
2023-04-18T19:40:59.803Z,53.8300
2023-04-18T19:42:01.400Z,53.8492
2023-04-18T19:43:03.619Z,53.8169
2023-04-18T19:44:04.773Z,54.2123
2023-04-18T19:45:06.432Z,53.7646
2023-04-18T19:46:08.199Z,54.6200
2023-04-18T19:47:09.717Z,54.6615
2023-04-18T19:48:11.404Z,54.2715
2023-04-18T19:49:13.308Z,54.1792
2023-04-18T19:50:14.723Z,54.0908
2023-04-18T19:51:16.272Z,54.2054
2023-04-18T19:52:18.007Z,54.2792
2023-04-18T19:53:20.301Z,54.7569
2023-04-18T19:54:21.972Z,54.7331
2023-04-18T19:55:23.024Z,54.8754
2023-04-18T19:56:24.532Z,54.4331
2023-04-18T19:57:26.256Z,54.9954
2023-04-18T19:58:27.819Z,54.4362
2023-04-18T19:59:29.515Z,54.3446
2023-04-18T20:00:31.134Z,54.3208
2023-04-18T20:01:32.854Z,54.2846
2023-04-18T20:02:34.640Z,54.2338
2023-04-18T20:03:36.276Z,54.8146
2023-04-18T20:04:37.985Z,54.0538
2023-04-18T20:05:39.409Z,54.2662
2023-04-18T20:06:41.009Z,54.3846
2023-04-18T20:07:42.676Z,54.4346
2023-04-18T20:08:44.326Z,54.3077
2023-04-18T20:09:45.957Z,55.3723
2023-04-18T20:10:47.601Z,54.2231
2023-04-18T20:11:49.261Z,55.2346
2023-04-18T20:12:50.843Z,55.4285
2023-04-18T20:13:52.598Z,55.6346
2023-04-18T20:14:54.175Z,55.2323
2023-04-18T20:15:55.834Z,55.7538
2023-04-18T20:16:57.568Z,54.7677
2023-04-18T20:17:59.256Z,55.0162
2023-04-18T20:19:00.803Z,54.4615
2023-04-18T20:20:02.380Z,55.1800
2023-04-18T20:21:04.087Z,54.9577
2023-04-18T20:22:05.697Z,55.0538
2023-04-18T20:23:07.309Z,54.5600
2023-04-18T20:24:09.026Z,55.1769
2023-04-18T20:25:10.653Z,55.6862
2023-04-18T20:26:13.094Z,55.4115
2023-04-18T20:27:13.890Z,55.4185
2023-04-18T20:28:15.581Z,55.1208
2023-04-18T20:29:17.285Z,54.5200
2023-04-18T20:30:18.856Z,54.4700
2023-04-18T20:31:20.574Z,54.7162
2023-04-18T20:32:22.139Z,56.2492
2023-04-18T20:33:23.825Z,55.8685
2023-04-18T20:34:25.506Z,55.8131
2023-04-18T20:35:27.163Z,55.0254
2023-04-18T20:36:28.777Z,54.4415
2023-04-18T20:37:30.445Z,55.9138
2023-04-18T20:38:32.092Z,56.1723
2023-04-18T20:39:33.776Z,54.7685
2023-04-18T20:40:35.354Z,55.5385
2023-04-18T20:41:37.022Z,55.6500
2023-04-18T20:42:38.637Z,54.6838
2023-04-18T20:43:40.370Z,55.8008
2023-04-18T20:44:42.074Z,54.7877
2023-04-18T20:45:43.650Z,55.6146
2023-04-18T20:46:45.274Z,55.3985
2023-04-18T20:47:46.957Z,55.9492
2023-04-18T20:48:48.510Z,55.8154
2023-04-18T20:49:50.165Z,56.6785
2023-04-18T20:50:51.947Z,55.3846
2023-04-18T20:51:53.424Z,55.1715
2023-04-18T20:52:55.162Z,54.8777
2023-04-18T20:53:56.716Z,56.3185
2023-04-18T20:54:58.477Z,56.2915
2023-04-18T20:56:00.086Z,55.7238
2023-04-18T20:57:01.719Z,56.3023
2023-04-18T20:58:03.335Z,56.7892
2023-04-18T20:59:05.068Z,56.1838
2023-04-18T21:00:06.685Z,56.8515
2023-04-18T21:01:08.356Z,55.5592
2023-04-18T21:02:10.089Z,55.9554
2023-04-18T21:03:11.750Z,55.1800
2023-04-18T21:04:13.680Z,54.7885
2023-04-18T21:05:14.971Z,55.8546
2023-04-18T21:06:16.506Z,56.0708
2023-04-18T21:07:18.199Z,55.5169
2023-04-18T21:08:19.820Z,55.1223
2023-04-18T21:09:21.488Z,55.1962
2023-04-18T21:10:23.161Z,55.6646
2023-04-18T21:11:24.790Z,55.3792
2023-04-18T21:12:26.351Z,54.3462
2023-04-18T21:13:28.083Z,54.6992
2023-04-18T21:14:29.681Z,55.4954
2023-04-18T21:15:31.401Z,56.1000
2023-04-18T21:16:33.141Z,54.5531
2023-04-18T21:17:34.692Z,54.7223
2023-04-18T21:18:36.541Z,55.3192
2023-04-18T21:19:37.977Z,56.5377
2023-04-18T21:20:39.672Z,55.9885
2023-04-18T21:21:41.259Z,55.6192
2023-04-18T21:22:42.911Z,54.7238
2023-04-18T21:23:44.542Z,54.1054
2023-04-18T21:24:46.190Z,54.4092
2023-04-18T21:25:47.903Z,54.3354
2023-04-18T21:26:49.441Z,54.7523
2023-04-18T21:27:51.149Z,55.4492
2023-04-18T21:28:52.755Z,54.4831
2023-04-18T21:29:54.440Z,54.1169
2023-04-18T21:30:56.164Z,54.5631
2023-04-18T21:31:57.785Z,55.8746
2023-04-18T21:32:59.377Z,56.7477
2023-04-18T21:34:01.068Z,56.5677
2023-04-18T21:35:03.605Z,55.0208
2023-04-18T21:36:04.353Z,55.1400
2023-04-18T21:37:05.962Z,55.8085
2023-04-18T21:38:07.538Z,54.2677
2023-04-18T21:39:09.241Z,54.6123
2023-04-18T21:40:10.952Z,54.3369
2023-04-18T21:41:12.612Z,53.7946
2023-04-18T21:42:14.110Z,54.0823
2023-04-18T21:43:15.841Z,54.2154
2023-04-18T21:44:17.477Z,54.3123
2023-04-18T21:45:19.194Z,53.9177
2023-04-18T21:46:24.220Z,55.3108
2023-04-18T21:47:22.402Z,55.7392
2023-04-18T21:48:24.013Z,54.6623
2023-04-18T21:49:25.643Z,54.0400
2023-04-18T21:50:27.306Z,54.2462
2023-04-18T21:51:29.113Z,53.8723
2023-04-18T21:52:30.597Z,54.1962
2023-04-18T21:53:32.259Z,53.9923
2023-04-18T21:54:33.881Z,53.1654
2023-04-18T21:55:35.561Z,53.4138
2023-04-18T21:56:37.224Z,54.0085
2023-04-18T21:57:38.826Z,53.6569
2023-04-18T21:58:40.453Z,53.1938
2023-04-18T21:59:42.209Z,53.5100
2023-04-18T22:00:43.846Z,54.5308
2023-04-18T22:01:45.449Z,54.7677
2023-04-18T22:02:47.313Z,55.4031
2023-04-18T22:03:48.888Z,53.9777
2023-04-18T22:04:50.332Z,53.8685
2023-04-18T22:05:52.548Z,53.8638
2023-04-18T22:06:53.682Z,53.2715
2023-04-18T22:07:58.458Z,53.3631
2023-04-18T22:08:56.928Z,53.4200
2023-04-18T22:09:58.606Z,53.6662
2023-04-18T22:11:01.142Z,54.6623
2023-04-18T22:12:01.958Z,55.1062
2023-04-18T22:13:03.601Z,54.9485
2023-04-18T22:14:05.216Z,54.9215
2023-04-18T22:15:06.817Z,53.2500
2023-04-18T22:16:09.101Z,53.1200
2023-04-18T22:17:10.180Z,52.8015
2023-04-18T22:18:11.792Z,53.2577
2023-04-18T22:19:13.410Z,53.5308
2023-04-18T22:20:15.079Z,53.9554
2023-04-18T22:21:16.734Z,53.1423
2023-04-18T22:22:18.408Z,53.5692
2023-04-18T22:23:20.050Z,53.7146
2023-04-18T22:24:21.802Z,54.0862
2023-04-18T22:25:23.322Z,54.7438
2023-04-18T22:26:25.006Z,55.1923
2023-04-18T22:27:27.122Z,54.7246
2023-04-18T22:28:28.291Z,54.5846
2023-04-18T22:29:29.895Z,52.8292
2023-04-18T22:30:31.686Z,53.5731
2023-04-18T22:31:34.061Z,53.3569
2023-04-18T22:32:34.938Z,52.9885
2023-04-18T22:33:36.532Z,53.3715
2023-04-18T22:34:38.104Z,54.1200
2023-04-18T22:35:39.807Z,53.8362
2023-04-18T22:36:41.439Z,53.9977
2023-04-18T22:37:43.599Z,54.8485
2023-04-18T22:38:44.754Z,54.3638
2023-04-18T22:39:46.375Z,53.9885
2023-04-18T22:40:48.007Z,52.9046
2023-04-18T22:41:49.722Z,53.3354
2023-04-18T22:42:51.336Z,52.9269
2023-04-18T22:43:52.992Z,53.1208
2023-04-18T22:44:54.633Z,53.1346
2023-04-18T22:45:56.353Z,53.1646
2023-04-18T22:46:57.974Z,52.9146
2023-04-18T22:48:00.628Z,53.1377
2023-04-18T22:49:01.360Z,53.7638
2023-04-18T22:50:03.090Z,54.0977
2023-04-18T22:51:04.686Z,56.2400
2023-04-18T22:52:06.342Z,56.0669
2023-04-18T22:53:08.082Z,55.0354
2023-04-18T22:54:09.649Z,54.0931
2023-04-18T22:55:11.369Z,53.4354
2023-04-18T22:56:12.922Z,52.9531
2023-04-18T22:57:15.275Z,53.4608
2023-04-18T22:58:16.296Z,52.9554
2023-04-18T22:59:18.791Z,53.0385
2023-04-18T23:00:19.527Z,53.2462
2023-04-18T23:01:23.016Z,52.9323
2023-04-18T23:02:23.005Z,53.5754
2023-04-18T23:03:24.893Z,54.5985
2023-04-18T23:04:26.267Z,56.0054
2023-04-18T23:05:27.763Z,55.8908
2023-04-18T23:06:29.392Z,54.4231
2023-04-18T23:07:30.959Z,53.3423
2023-04-18T23:08:32.718Z,53.1431
2023-04-18T23:09:34.264Z,52.5615
2023-04-18T23:10:35.972Z,52.3862
2023-04-18T23:11:37.589Z,52.6692
2023-04-18T23:12:39.276Z,52.8892
2023-04-18T23:13:40.966Z,52.9808
2023-04-18T23:14:42.573Z,53.3638
2023-04-18T23:15:44.182Z,53.8269
2023-04-18T23:16:45.882Z,54.2492